Terminal Aerodrome Forecast
Issued by NWS Rapid City, SD

Home | Current Version | Previous Version | Text Only | Print | Product List | Glossary Off
Versions: 1 2 3 4 5 6 7 8 9 10 11 12 13 14 15 16 17

000
FTUS43 KUNR 300500
TAFRAP
TAF
KRAP 300520Z 3006/3106 31008KT P6SM SCT200
     FM301500 33013KT P6SM SCT250
     FM302000 34020G30KT P6SM SCT250
     FM310100 35010KT P6SM BKN250=

USA.gov is the U.S. government's official web portal to all federal, state and local government web resources and services.